• Join FlightAware (Why Join?)
  • Login
  • US Flag 
06:31AM EST


 

Airport Tracker/Info


-or-


 

Live Flight TrackerFlight Track Log ✈ N247CN ✈ 28-Apr-2013 ✈ KFLL - SVMI / CCS

Flight Track Log - Related Links

Times and Time Zones

All times are in EDT time to prevent confusion due to time zone crossing. See the N247CN flight status page for this flight to view local times or setup timezone preferences in your user account.

Time Position Orientation Groundspeed Altitude Reporting Facility
EDT Latitude Longitude Course Direction KTS MPH feet Rate Location/Type
10:35AM 26.0750 -80.1389 90° East 162 186 700  Level Miami Center
10:36AM 26.0744 -80.0697 90° East 212 244 3,500 2,580 Climbing Miami Center
10:37AM 26.0781 -79.9981 87° East 241 277 6,000 2,280 Climbing Miami Center
10:37AM 26.0808 -79.9633 85° East 243 280 6,900 2,340 Climbing Miami Center
10:38AM 26.0656 -79.8958 104° East 274 315 9,400 2,160 Climbing Miami Center
10:39AM 26.0483 -79.8144 103° East 274 315 11,300 1,920 Climbing Miami Center
10:40AM 26.0356 -79.7264 99° East 279 321 13,300 1,920 Climbing Miami Center
10:41AM 26.0228 -79.6336 99° East 291 335 15,200 1,800 Climbing Miami Center
10:42AM 26.0078 -79.5408 100° East 297 342 17,000 1,740 Climbing Miami Center
10:44AM 25.9892 -79.4108 99° East 319 367 19,100 1,560 Climbing Miami Center
10:45AM 25.9761 -79.3206 99° East 324 373 20,500 1,440 Climbing Miami Center
10:46AM 25.9611 -79.2161 99° East 335 386 22,000 1,500 Climbing Miami Center
10:47AM 25.9439 -79.1094 100° East 340 391 23,500 1,620 Climbing Miami Center
10:48AM 25.9289 -79.0031 99° East 340 391 25,300 1,500 Climbing Miami Center
10:49AM 25.9114 -78.9033 101° East 345 397 26,600 900 Climbing Miami Center
10:50AM 25.8961 -78.7875 98° East 351 404 27,200 720 Climbing Miami Center
10:51AM 25.8261 -78.7103 135° Southeast 351 404 28,100 960 Climbing Miami Center
10:52AM 25.7753 -78.6125 120° Southeast 352 405 29,200 900 Climbing Miami Center
10:53AM 25.6986 -78.5353 138° Southeast 358 412 30,000 660 Climbing Miami Center
10:54AM 25.6181 -78.4558 138° Southeast 370 426 30,600 480 Climbing Miami Center
10:55AM 25.5375 -78.3767 138° Southeast 382 440 31,000 480 Climbing Miami Center
10:56AM 25.4547 -78.2928 138° Southeast 388 447 31,600 660 Climbing Miami Center
10:57AM 25.3719 -78.2111 138° Southeast 393 452 32,400 720 Climbing Miami Center
10:58AM 25.2911 -78.1275 137° Southeast 398 458 33,100 600 Climbing Miami Center
10:59AM 25.2000 -78.0369 138° Southeast 398 458 33,600 600 Climbing Miami Center
11:00AM 25.1275 -77.9628 137° Southeast 398 458 34,300 660 Climbing Miami Center
11:01AM 25.0464 -77.8819 138° Southeast 398 458 35,000 720 Climbing Miami Center
11:02AM 24.9633 -77.8033 139° Southeast 398 458 35,800 660 Climbing Miami Center
11:03AM 24.8844 -77.7225 137° Southeast 398 458 36,400 480 Climbing Miami Center
11:04AM 24.8033 -77.6442 139° Southeast 393 452 36,800 300 Climbing Miami Center
11:05AM 24.7222 -77.5611 137° Southeast 388 447 37,000 60 Climbing Miami Center
11:06AM 24.6411 -77.4783 137° Southeast 388 447 37,000  Level Miami Center
11:07AM 24.5578 -77.3958 138° Southeast 388 447 37,000  Level Miami Center
11:08AM 24.4744 -77.3133 138° Southeast 393 452 37,000  Level Miami Center
11:09AM 24.3892 -77.2283 138° Southeast 398 458 37,000  Level Miami Center
11:10AM 24.3036 -77.1439 138° Southeast 404 465 37,000  Level Miami Center
11:11AM 24.2181 -77.0594 138° Southeast 409 471 37,000  Level Miami Center
11:12AM 24.1325 -76.9750 138° Southeast 409 471 37,000  Level Miami Center
11:13AM 24.0467 -76.8883 137° Southeast 409 471 37,000  Level Miami Center
11:14AM 23.9631 -76.8111 140° Southeast 409 471 37,000  Level Miami Center
11:15AM 23.8775 -76.7269 138° Southeast 409 471 37,000  Level Miami Center
11:16AM 23.7894 -76.6408 138° Southeast 415 478 37,000  Level Miami Center
11:17AM 23.7036 -76.5569 138° Southeast 415 478 37,000  Level Miami Center
11:18AM 23.6158 -76.4756 140° Southeast 415 478 37,000  Level Miami Center
11:19AM 23.5297 -76.3919 138° Southeast 415 478 37,000  Level Miami Center
11:20AM 23.4417 -76.3064 138° Southeast 415 478 37,000  Level Miami Center
11:21AM 23.3517 -76.2231 140° Southeast 415 478 37,000  Level Miami Center
11:22AM 23.2656 -76.1375 138° Southeast 415 478 37,000  Level Miami Center
11:23AM 23.1772 -76.0519 138° Southeast 415 478 37,000  Level Miami Center
11:24AM 23.0892 -75.9692 139° Southeast 415 478 37,000  Level Miami Center
11:25AM 22.9986 -75.8839 139° Southeast 415 478 37,000  Level Miami Center
11:26AM 22.9103 -75.7989 138° Southeast 415 478 37,000  Level Miami Center
11:27AM 22.8197 -75.7117 138° Southeast 420 483 37,000  Level Miami Center
11:28AM 22.7314 -75.6269 138° Southeast 425 489 37,000  Level Miami Center
11:29AM 22.6431 -75.5422 138° Southeast 425 489 37,000  Level Miami Center
11:30AM 22.5503 -75.4556 139° Southeast 430 495 37,000  Level Miami Center
11:31AM 22.4597 -75.3711 139° Southeast 435 501 37,000  Level Miami Center
11:32AM 22.3689 -75.2844 139° Southeast 435 501 37,000  Level Miami Center
11:33AM 22.2803 -75.2003 139° Southeast 435 501 37,000  Level Miami Center
11:34AM 22.1917 -75.1186 140° Southeast 435 501 37,000  Level Miami Center
11:35AM 22.1028 -75.0322 138° Southeast 435 501 37,000  Level Miami Center
11:36AM 22.0100 -74.9483 140° Southeast 435 501 37,000  Level Miami Center
11:37AM 21.9211 -74.8647 139° Southeast 435 501 37,000  Level Miami Center
11:38AM 21.8303 -74.7811 139° Southeast 435 501 37,000  Level Miami Center
11:39AM 21.7414 -74.6953 138° Southeast 435 501 37,000  Level Miami Center
11:40AM 21.6525 -74.6094 138° Southeast 435 501 37,000  Level Miami Center
11:41AM 21.5633 -74.5264 139° Southeast 435 501 37,000  Level Miami Center
11:42AM 21.4722 -74.4408 139° Southeast 435 501 37,000  Level Miami Center
11:43AM 21.3811 -74.3578 140° Southeast 435 501 37,000  Level Miami Center
11:44AM 21.2900 -74.2769 140° Southeast 435 501 37,000  Level Miami Center
11:45AM 21.2008 -74.1897 138° Southeast 435 501 37,000  Level Miami Center
11:46AM 21.1119 -74.1092 140° Southeast 435 501 37,000  Level Miami Center
11:47AM 21.0164 -74.0244 140° Southeast 435 501 37,000  Level Miami Center
11:48AM 20.9272 -73.9375 138° Southeast 435 501 37,000  Level Miami Center
11:49AM 20.8358 -73.8550 140° Southeast 435 501 37,000 180 Level Miami Center
11:50AM 20.7444 -73.7706 139° Southeast 435 501 37,400 540 Climbing Miami Center
11:51AM 20.6572 -73.6906 139° Southeast 435 501 38,100 600 Climbing Miami Center
11:52AM 20.5722 -73.6150 140° Southeast 420 483 38,600 420 Climbing Miami Center
11:53AM 20.4914 -73.5394 139° Southeast 401 461 39,000 180 Climbing Miami Center
11:54AM 20.4019 -73.4597 140° Southeast 406 467 39,000  Level Miami Center
11:55AM 20.3147 -73.3822 140° Southeast 411 473 39,000  Level Miami Center
11:56AM 20.2175 -73.3272 152° Southeast 406 467 39,000  Level Miami Center
11:57AM 20.1181 -73.2656 150° Southeast 406 467 39,000  Level Miami Center
11:58AM 20.0186 -73.2042 150° Southeast 406 467 39,000  Level Miami Center
12:00PM 19.8530 -73.0699 143° Southeast  Level FlightAware Approximate
12:07PM 19.1950 -72.6867 153° Southeast  Level FlightAware Approximate
12:08PM 19.1000 -72.6349 153° Southeast  Level FlightAware Approximate
12:09PM 19.0055 -72.5823 152° Southeast  Level FlightAware Approximate
12:10PM 18.9111 -72.5294 152° Southeast  Level FlightAware Approximate
12:11PM 18.8168 -72.4766 152° Southeast  Level FlightAware Approximate
12:12PM 18.7224 -72.4238 152° Southeast  Level FlightAware Approximate
12:13PM 18.6278 -72.3714 153° Southeast  Level FlightAware Approximate
12:14PM 18.5327 -72.3201 153° Southeast  Level FlightAware Approximate
12:15PM 18.4376 -72.2690 153° Southeast  Level FlightAware Approximate
12:16PM 18.3471 -72.2091 148° Southeast  Level FlightAware Approximate
12:17PM 18.2569 -72.1489 148° Southeast  Level FlightAware Approximate
12:18PM 18.1667 -72.0888 148° Southeast  Level FlightAware Approximate
12:19PM 18.0744 -72.0323 151° Southeast  Level FlightAware Approximate
12:20PM 17.9810 -71.9778 151° Southeast  Level FlightAware Approximate
12:21PM 17.8887 -71.9215 149° Southeast  Level FlightAware Approximate
12:22PM 17.7973 -71.8633 149° Southeast  Level FlightAware Approximate
12:23PM 17.7060 -71.8052 149° Southeast  Level FlightAware Approximate
12:24PM 17.6147 -71.7471 149° Southeast  Level FlightAware Approximate
12:25PM 17.5261 -71.6854 150° Southeast  Level FlightAware Approximate
12:26PM 17.4338 -71.6291 150° Southeast  Level FlightAware Approximate
12:27PM 17.3414 -71.5729 150° Southeast  Level FlightAware Approximate
12:28PM 17.2491 -71.5167 150° Southeast  Level FlightAware Approximate
12:29PM 17.1568 -71.4605 149° Southeast  Level FlightAware Approximate
12:30PM 17.0651 -71.4031 149° Southeast  Level FlightAware Approximate
12:31PM 16.9734 -71.3458 149° Southeast  Level FlightAware Approximate
12:32PM 16.8816 -71.2887 150° Southeast  Level FlightAware Approximate
12:33PM 16.7896 -71.2322 150° Southeast  Level FlightAware Approximate
12:34PM 16.6975 -71.1757 150° Southeast  Level FlightAware Approximate
12:35PM 16.6054 -71.1193 150° Southeast  Level FlightAware Approximate
12:36PM 16.5132 -71.0629 150° Southeast  Level FlightAware Approximate
12:37PM 16.4211 -71.0066 150° Southeast  Level FlightAware Approximate
12:38PM 16.3290 -70.9503 150° Southeast  Level FlightAware Approximate
12:39PM 16.2368 -70.8941 150° Southeast  Level FlightAware Approximate
12:40PM 16.1446 -70.8380 150° Southeast  Level FlightAware Approximate
12:41PM 16.0524 -70.7819 150° Southeast  Level FlightAware Approximate
12:42PM 15.9581 -70.7301 155° Southeast  Level FlightAware Approximate
12:43PM 15.8609 -70.6840 155° Southeast  Level FlightAware Approximate
12:44PM 15.7637 -70.6379 155° Southeast  Level FlightAware Approximate
12:45PM 15.6666 -70.5919 155° Southeast  Level FlightAware Approximate
12:46PM 15.5694 -70.5459 155° Southeast  Level FlightAware Approximate
12:47PM 15.4722 -70.5000 156° South  Level FlightAware Approximate
12:48PM 15.3750 -70.4541 156° South  Level FlightAware Approximate
12:49PM 15.2778 -70.4082 156° South  Level FlightAware Approximate
12:50PM 15.1805 -70.3624 156° South  Level FlightAware Approximate
12:51PM 15.0833 -70.3167 156° South  Level FlightAware Approximate
12:52PM 14.9855 -70.2723 156° South  Level FlightAware Approximate
12:53PM 14.8876 -70.2279 156° South  Level FlightAware Approximate
12:54PM 14.7898 -70.1836 156° South  Level FlightAware Approximate
12:55PM 14.6920 -70.1393 156° South  Level FlightAware Approximate
12:56PM 14.5941 -70.0951 156° South  Level FlightAware Approximate
12:57PM 14.4963 -70.0509 156° South  Level FlightAware Approximate
12:58PM 14.3984 -70.0068 156° South  Level FlightAware Approximate
12:59PM 14.3008 -69.9621 156° South  Level FlightAware Approximate
01:00PM 14.2032 -69.9173 156° South  Level FlightAware Approximate
01:01PM 14.1056 -69.8725 156° South  Level FlightAware Approximate
01:02PM 14.0080 -69.8278 156° South  Level FlightAware Approximate
01:03PM 13.9104 -69.7831 156° South  Level FlightAware Approximate
01:04PM 13.8128 -69.7384 156° South  Level FlightAware Approximate
01:05PM 13.7152 -69.6938 156° South  Level FlightAware Approximate
01:06PM 13.6176 -69.6493 156° South  Level FlightAware Approximate
01:07PM 13.5200 -69.6047 156° South  Level FlightAware Approximate
01:08PM 13.4223 -69.5602 156° South  Level FlightAware Approximate
01:09PM 13.3247 -69.5158 156° South  Level FlightAware Approximate
01:10PM 13.2270 -69.4713 156° South  Level FlightAware Approximate
01:11PM 13.1294 -69.4269 156° South  Level FlightAware Approximate
01:12PM 13.0317 -69.3826 156° South  Level FlightAware Approximate
01:13PM 12.9339 -69.3387 156° South  Level FlightAware Approximate
01:14PM 12.8360 -69.2948 156° South  Level FlightAware Approximate
01:15PM 12.7381 -69.2509 156° South  Level FlightAware Approximate
01:16PM 12.6403 -69.2071 156° South  Level FlightAware Approximate
01:17PM 12.5424 -69.1632 156° South  Level FlightAware Approximate
01:18PM 12.4448 -69.1188 156° South  Level FlightAware Approximate
01:19PM 12.3472 -69.0744 156° South  Level FlightAware Approximate
01:20PM 12.2496 -69.0301 156° South  Level FlightAware Approximate
01:21PM 12.1588 -68.9755 136° Southeast  Level FlightAware Approximate
01:22PM 12.0824 -68.8991 136° Southeast  Level FlightAware Approximate
01:23PM 12.0051 -68.8238 138° Southeast  Level FlightAware Approximate
01:24PM 11.9261 -68.7504 138° Southeast  Level FlightAware Approximate
01:25PM 11.8470 -68.6770 138° Southeast  Level FlightAware Approximate
01:26PM 11.7684 -68.6031 138° Southeast  Level FlightAware Approximate
01:27PM 11.6887 -68.5306 138° Southeast  Level FlightAware Approximate
01:28PM 11.6089 -68.4581 138° Southeast  Level FlightAware Approximate
01:29PM 11.5412 -68.3745 136° Southeast  Level FlightAware Approximate
01:30PM 11.4626 -68.3008 138° Southeast  Level FlightAware Approximate
01:31PM 11.3829 -68.2283 138° Southeast  Level FlightAware Approximate
01:32PM 11.3031 -68.1559 138° Southeast  Level FlightAware Approximate
01:33PM 11.2234 -68.0834 138° Southeast  Level FlightAware Approximate
01:34PM 11.1438 -68.0108 137° Southeast  Level FlightAware Approximate
01:35PM 11.0656 -67.9367 137° Southeast  Level FlightAware Approximate
01:36PM 10.9874 -67.8625 137° Southeast  Level FlightAware Approximate
01:37PM 10.9092 -67.7885 137° Southeast  Level FlightAware Approximate
01:38PM 10.8311 -67.7144 135° Southeast  Level FlightAware Approximate
01:39PM 10.7549 -67.6382 135° Southeast  Level FlightAware Approximate
01:40PM 10.6721 -67.5703 147° Southeast  Level FlightAware Approximate
01:41PM 10.6574 -67.4651 95° East  Level FlightAware Approximate
01:42PM 10.6474 -67.3569 96° East  Level FlightAware Approximate
01:43PM 10.6365 -67.2488 96° East  Level FlightAware Approximate
01:44PM 10.6197 -67.1425 109° East  Level FlightAware Approximate
01:45PM 10.6129 -67.0349 104° East  Level FlightAware Approximate
01:46PM 10.6031 -66.9906 90° East  Level Estimated
01:47PM 10.6031 -66.9906 90° East  Level Estimated
01:48PM 10.6031 -66.9906 90° East  Level Estimated
01:49PM 10.6031 -66.9906 90° East  Level Estimated
01:50PM 10.6031 -66.9906 90° East  Level Estimated
01:51PM 10.6031 -66.9906 90° East  Level Estimated
01:52PM 10.6031 -66.9906 90° East  Level Estimated
01:53PM 10.6031 -66.9906 90° East  Level Estimated
01:54PM 10.6031 -66.9906 90° East  Level Estimated
01:55PM 10.6031 -66.9906 90° East  Level Estimated
01:56PM 10.6031 -66.9906 90° East  Level Estimated
01:57PM 10.6031 -66.9906 90° East  Level Estimated
01:58PM 10.6031 -66.9906 90° East  Level Estimated
01:59PM 10.6031 -66.9906 90° East  Level Estimated
02:00PM 10.6031 -66.9906 90° East  Level Estimated
02:01PM 10.6031 -66.9906 90° East  Level Estimated
02:02PM 10.6031 -66.9906 90° East  Level Estimated
02:03PM 10.6031 -66.9906 90° East  Level Estimated